sensor_id;sensor_type;location;lat;lon;timestamp;temperature;humidity
14188;DHT22;7175;51.978;5.330;2022-12-29T00:02:02;12.30;99.90
14188;DHT22;7175;51.978;5.330;2022-12-29T00:04:31;12.40;99.90
14188;DHT22;7175;51.978;5.330;2022-12-29T00:06:59;12.50;99.90
14188;DHT22;7175;51.978;5.330;2022-12-29T00:09:27;12.40;99.90
14188;DHT22;7175;51.978;5.330;2022-12-29T00:11:55;12.40;99.90
14188;DHT22;7175;51.978;5.330;2022-12-29T00:14:26;12.40;99.90
14188;DHT22;7175;51.978;5.330;2022-12-29T00:17:12;12.40;99.90
14188;DHT22;7175;51.978;5.330;2022-12-29T00:19:41;12.50;99.90
14188;DHT22;7175;51.978;5.330;2022-12-29T00:22:26;12.40;99.90
14188;DHT22;7175;51.978;5.330;2022-12-29T00:25:12;12.40;99.90
14188;DHT22;7175;51.978;5.330;2022-12-29T00:27:58;12.40;99.90
14188;DHT22;7175;51.978;5.330;2022-12-29T00:30:45;12.40;99.90
14188;DHT22;7175;51.978;5.330;2022-12-29T00:33:32;12.40;99.90
14188;DHT22;7175;51.978;5.330;2022-12-29T00:36:19;12.40;99.90
14188;DHT22;7175;51.978;5.330;2022-12-29T00:38:52;12.40;99.90
14188;DHT22;7175;51.978;5.330;2022-12-29T00:41:38;12.40;99.90
14188;DHT22;7175;51.978;5.330;2022-12-29T00:44:23;12.40;99.90
14188;DHT22;7175;51.978;5.330;2022-12-29T00:46:53;12.50;99.90
14188;DHT22;7175;51.978;5.330;2022-12-29T00:49:21;12.40;99.90
14188;DHT22;7175;51.978;5.330;2022-12-29T00:52:00;12.30;99.90
14188;DHT22;7175;51.978;5.330;2022-12-29T00:54:29;12.30;99.90
14188;DHT22;7175;51.978;5.330;2022-12-29T00:56:58;12.30;99.90
14188;DHT22;7175;51.978;5.330;2022-12-29T00:59:26;12.30;99.90
14188;DHT22;7175;51.978;5.330;2022-12-29T01:01:56;12.40;99.90
14188;DHT22;7175;51.978;5.330;2022-12-29T01:04:25;12.40;99.90
14188;DHT22;7175;51.978;5.330;2022-12-29T01:06:53;12.40;99.90
14188;DHT22;7175;51.978;5.330;2022-12-29T01:09:22;12.30;99.90
14188;DHT22;7175;51.978;5.330;2022-12-29T01:12:13;12.20;99.90
14188;DHT22;7175;51.978;5.330;2022-12-29T01:14:41;12.10;99.90
14188;DHT22;7175;51.978;5.330;2022-12-29T01:17:11;12.10;99.90
14188;DHT22;7175;51.978;5.330;2022-12-29T01:19:39;12.10;99.90
14188;DHT22;7175;51.978;5.330;2022-12-29T01:22:07;12.00;99.90
14188;DHT22;7175;51.978;5.330;2022-12-29T01:24:35;11.90;99.90
14188;DHT22;7175;51.978;5.330;2022-12-29T01:27:03;11.80;99.90
14188;DHT22;7175;51.978;5.330;2022-12-29T01:29:31;11.80;99.90
14188;DHT22;7175;51.978;5.330;2022-12-29T01:31:59;11.80;99.90
14188;DHT22;7175;51.978;5.330;2022-12-29T01:34:29;11.80;99.90
14188;DHT22;7175;51.978;5.330;2022-12-29T01:36:57;11.90;99.90
14188;DHT22;7175;51.978;5.330;2022-12-29T01:39:25;11.90;99.90
14188;DHT22;7175;51.978;5.330;2022-12-29T01:41:53;11.90;99.90
14188;DHT22;7175;51.978;5.330;2022-12-29T01:47:29;11.80;99.90
14188;DHT22;7175;51.978;5.330;2022-12-29T01:50:03;11.80;99.90
14188;DHT22;7175;51.978;5.330;2022-12-29T01:52:34;11.80;99.90
14188;DHT22;7175;51.978;5.330;2022-12-29T01:55:05;11.90;99.90
14188;DHT22;7175;51.978;5.330;2022-12-29T01:57:36;11.80;99.90
14188;DHT22;7175;51.978;5.330;2022-12-29T02:00:07;11.70;99.90
14188;DHT22;7175;51.978;5.330;2022-12-29T02:02:35;11.60;99.90
14188;DHT22;7175;51.978;5.330;2022-12-29T02:05:11;11.60;99.90
14188;DHT22;7175;51.978;5.330;2022-12-29T02:07:43;11.60;99.90
14188;DHT22;7175;51.978;5.330;2022-12-29T02:10:12;11.60;99.90
14188;DHT22;7175;51.978;5.330;2022-12-29T02:12:41;11.60;99.90
14188;DHT22;7175;51.978;5.330;2022-12-29T02:15:09;11.70;99.90
14188;DHT22;7175;51.978;5.330;2022-12-29T02:17:53;11.70;99.90
14188;DHT22;7175;51.978;5.330;2022-12-29T02:24:04;11.80;99.90
14188;DHT22;7175;51.978;5.330;2022-12-29T02:26:49;11.70;99.90
14188;DHT22;7175;51.978;5.330;2022-12-29T02:29:50;11.80;99.90
14188;DHT22;7175;51.978;5.330;2022-12-29T02:32:28;11.80;99.90
14188;DHT22;7175;51.978;5.330;2022-12-29T02:35:04;11.80;99.90
14188;DHT22;7175;51.978;5.330;2022-12-29T02:37:41;11.80;99.90
14188;DHT22;7175;51.978;5.330;2022-12-29T02:40:18;11.80;99.90
14188;DHT22;7175;51.978;5.330;2022-12-29T02:42:50;11.80;99.90
14188;DHT22;7175;51.978;5.330;2022-12-29T02:45:22;11.70;99.90
14188;DHT22;7175;51.978;5.330;2022-12-29T02:47:58;11.70;99.90
14188;DHT22;7175;51.978;5.330;2022-12-29T02:50:34;11.80;99.90
14188;DHT22;7175;51.978;5.330;2022-12-29T02:53:07;11.70;99.90
14188;DHT22;7175;51.978;5.330;2022-12-29T02:55:36;11.70;99.90
14188;DHT22;7175;51.978;5.330;2022-12-29T02:58:17;11.70;99.90
14188;DHT22;7175;51.978;5.330;2022-12-29T03:01:00;11.70;99.90
14188;DHT22;7175;51.978;5.330;2022-12-29T03:03:45;11.70;99.90
14188;DHT22;7175;51.978;5.330;2022-12-29T03:06:25;11.70;99.90
14188;DHT22;7175;51.978;5.330;2022-12-29T03:09:03;11.70;99.90
14188;DHT22;7175;51.978;5.330;2022-12-29T03:11:50;11.60;99.90
14188;DHT22;7175;51.978;5.330;2022-12-29T03:14:55;11.60;99.90
14188;DHT22;7175;51.978;5.330;2022-12-29T03:17:49;11.50;99.90
14188;DHT22;7175;51.978;5.330;2022-12-29T03:20:23;11.50;99.90
14188;DHT22;7175;51.978;5.330;2022-12-29T03:22:58;11.50;99.90
14188;DHT22;7175;51.978;5.330;2022-12-29T03:25:30;11.50;99.90
14188;DHT22;7175;51.978;5.330;2022-12-29T03:28:02;11.50;99.90
14188;DHT22;7175;51.978;5.330;2022-12-29T03:30:32;11.40;99.90
14188;DHT22;7175;51.978;5.330;2022-12-29T03:33:04;11.40;99.90
14188;DHT22;7175;51.978;5.330;2022-12-29T03:35:37;11.30;99.90
14188;DHT22;7175;51.978;5.330;2022-12-29T03:38:10;11.30;99.90
14188;DHT22;7175;51.978;5.330;2022-12-29T03:40:41;11.30;99.90
14188;DHT22;7175;51.978;5.330;2022-12-29T03:43:11;11.20;99.90
14188;DHT22;7175;51.978;5.330;2022-12-29T03:45:40;11.20;99.90
14188;DHT22;7175;51.978;5.330;2022-12-29T03:48:08;11.10;99.90
14188;DHT22;7175;51.978;5.330;2022-12-29T03:50:37;11.00;99.90
14188;DHT22;7175;51.978;5.330;2022-12-29T03:53:05;11.00;99.90
14188;DHT22;7175;51.978;5.330;2022-12-29T03:55:34;11.00;99.90
14188;DHT22;7175;51.978;5.330;2022-12-29T03:58:02;11.00;99.90
14188;DHT22;7175;51.978;5.330;2022-12-29T04:00:30;11.00;99.90
14188;DHT22;7175;51.978;5.330;2022-12-29T04:02:58;11.00;99.90
14188;DHT22;7175;51.978;5.330;2022-12-29T04:05:27;11.00;99.90
14188;DHT22;7175;51.978;5.330;2022-12-29T04:07:56;11.10;99.90
14188;DHT22;7175;51.978;5.330;2022-12-29T04:10:24;11.20;99.90
14188;DHT22;7175;51.978;5.330;2022-12-29T04:12:52;11.30;99.90
14188;DHT22;7175;51.978;5.330;2022-12-29T04:15:20;11.40;99.90
14188;DHT22;7175;51.978;5.330;2022-12-29T04:17:50;11.40;99.90
14188;DHT22;7175;51.978;5.330;2022-12-29T04:20:18;11.50;99.90
14188;DHT22;7175;51.978;5.330;2022-12-29T04:23:02;11.50;99.90
14188;DHT22;7175;51.978;5.330;2022-12-29T04:25:30;11.40;99.90
14188;DHT22;7175;51.978;5.330;2022-12-29T04:28:00;11.40;99.90
14188;DHT22;7175;51.978;5.330;2022-12-29T04:30:28;11.40;99.90
14188;DHT22;7175;51.978;5.330;2022-12-29T04:32:56;11.40;99.90
14188;DHT22;7175;51.978;5.330;2022-12-29T04:35:24;11.40;99.90
14188;DHT22;7175;51.978;5.330;2022-12-29T04:37:52;11.30;99.90
14188;DHT22;7175;51.978;5.330;2022-12-29T04:40:22;11.30;99.90
14188;DHT22;7175;51.978;5.330;2022-12-29T04:42:51;11.30;99.90
14188;DHT22;7175;51.978;5.330;2022-12-29T04:45:19;11.20;99.90
14188;DHT22;7175;51.978;5.330;2022-12-29T04:47:47;11.20;99.90
14188;DHT22;7175;51.978;5.330;2022-12-29T04:50:15;11.20;99.90
14188;DHT22;7175;51.978;5.330;2022-12-29T04:52:43;11.20;99.90
14188;DHT22;7175;51.978;5.330;2022-12-29T04:55:11;11.10;99.90
14188;DHT22;7175;51.978;5.330;2022-12-29T04:57:41;11.10;99.90
14188;DHT22;7175;51.978;5.330;2022-12-29T05:00:10;11.10;99.90
14188;DHT22;7175;51.978;5.330;2022-12-29T05:02:40;11.20;99.90
14188;DHT22;7175;51.978;5.330;2022-12-29T05:05:09;11.20;99.90
14188;DHT22;7175;51.978;5.330;2022-12-29T05:07:37;11.10;99.90
14188;DHT22;7175;51.978;5.330;2022-12-29T05:10:06;11.10;99.90
14188;DHT22;7175;51.978;5.330;2022-12-29T05:12:36;11.00;99.90
14188;DHT22;7175;51.978;5.330;2022-12-29T05:15:08;11.00;99.90
14188;DHT22;7175;51.978;5.330;2022-12-29T05:17:36;10.90;99.90
14188;DHT22;7175;51.978;5.330;2022-12-29T05:20:06;10.90;99.90
14188;DHT22;7175;51.978;5.330;2022-12-29T05:22:34;10.80;99.90
14188;DHT22;7175;51.978;5.330;2022-12-29T05:25:02;10.80;99.90
14188;DHT22;7175;51.978;5.330;2022-12-29T05:27:31;10.90;99.90
14188;DHT22;7175;51.978;5.330;2022-12-29T05:29:59;10.90;99.90
14188;DHT22;7175;51.978;5.330;2022-12-29T05:32:28;10.80;99.90
14188;DHT22;7175;51.978;5.330;2022-12-29T05:34:56;10.90;99.90
14188;DHT22;7175;51.978;5.330;2022-12-29T05:37:24;10.90;99.90
14188;DHT22;7175;51.978;5.330;2022-12-29T05:39:53;10.90;99.90
14188;DHT22;7175;51.978;5.330;2022-12-29T05:42:21;10.90;99.90
14188;DHT22;7175;51.978;5.330;2022-12-29T05:44:49;11.00;99.90
14188;DHT22;7175;51.978;5.330;2022-12-29T05:47:20;11.10;99.90
14188;DHT22;7175;51.978;5.330;2022-12-29T05:49:50;11.10;99.90
14188;DHT22;7175;51.978;5.330;2022-12-29T05:52:18;11.10;99.90
14188;DHT22;7175;51.978;5.330;2022-12-29T05:54:46;11.10;99.90
14188;DHT22;7175;51.978;5.330;2022-12-29T05:57:15;11.10;99.90
14188;DHT22;7175;51.978;5.330;2022-12-29T05:59:43;11.20;99.90
14188;DHT22;7175;51.978;5.330;2022-12-29T06:02:11;11.20;99.90
14188;DHT22;7175;51.978;5.330;2022-12-29T06:04:39;11.20;99.90
14188;DHT22;7175;51.978;5.330;2022-12-29T06:07:09;11.20;99.90
14188;DHT22;7175;51.978;5.330;2022-12-29T06:09:37;11.20;99.90
14188;DHT22;7175;51.978;5.330;2022-12-29T06:12:06;11.10;99.90
14188;DHT22;7175;51.978;5.330;2022-12-29T06:14:34;11.20;99.90
14188;DHT22;7175;51.978;5.330;2022-12-29T06:17:02;11.20;99.90
14188;DHT22;7175;51.978;5.330;2022-12-29T06:19:30;11.30;99.90
14188;DHT22;7175;51.978;5.330;2022-12-29T06:21:59;11.20;99.90
14188;DHT22;7175;51.978;5.330;2022-12-29T06:24:28;11.30;99.90
14188;DHT22;7175;51.978;5.330;2022-12-29T06:26:56;11.30;99.90
14188;DHT22;7175;51.978;5.330;2022-12-29T06:29:24;11.20;99.90
14188;DHT22;7175;51.978;5.330;2022-12-29T06:31:52;11.20;99.90
14188;DHT22;7175;51.978;5.330;2022-12-29T06:34:23;11.20;99.90
14188;DHT22;7175;51.978;5.330;2022-12-29T06:36:51;11.10;99.90
14188;DHT22;7175;51.978;5.330;2022-12-29T06:39:19;11.00;99.90
14188;DHT22;7175;51.978;5.330;2022-12-29T06:41:51;11.00;99.90
14188;DHT22;7175;51.978;5.330;2022-12-29T06:44:19;11.00;99.90
14188;DHT22;7175;51.978;5.330;2022-12-29T06:46:48;11.00;99.90
14188;DHT22;7175;51.978;5.330;2022-12-29T06:49:16;11.10;99.90
14188;DHT22;7175;51.978;5.330;2022-12-29T06:51:44;10.90;99.90
14188;DHT22;7175;51.978;5.330;2022-12-29T06:54:12;10.80;99.90
14188;DHT22;7175;51.978;5.330;2022-12-29T06:56:40;10.60;99.90
14188;DHT22;7175;51.978;5.330;2022-12-29T06:59:10;10.40;99.90
14188;DHT22;7175;51.978;5.330;2022-12-29T07:01:38;10.30;99.90
14188;DHT22;7175;51.978;5.330;2022-12-29T07:04:06;10.20;99.90
14188;DHT22;7175;51.978;5.330;2022-12-29T07:06:34;10.10;99.90
14188;DHT22;7175;51.978;5.330;2022-12-29T07:09:02;10.00;99.90
14188;DHT22;7175;51.978;5.330;2022-12-29T07:11:31;10.00;99.90
14188;DHT22;7175;51.978;5.330;2022-12-29T07:13:59;10.00;99.90
14188;DHT22;7175;51.978;5.330;2022-12-29T07:16:32;9.90;99.90
14188;DHT22;7175;51.978;5.330;2022-12-29T07:19:01;9.80;99.90
14188;DHT22;7175;51.978;5.330;2022-12-29T07:21:29;9.70;99.90
14188;DHT22;7175;51.978;5.330;2022-12-29T07:23:57;9.70;99.90
14188;DHT22;7175;51.978;5.330;2022-12-29T07:26:25;9.70;99.90
14188;DHT22;7175;51.978;5.330;2022-12-29T07:29:02;9.60;99.90
14188;DHT22;7175;51.978;5.330;2022-12-29T07:31:31;9.60;99.90
14188;DHT22;7175;51.978;5.330;2022-12-29T07:34:00;9.60;99.90
14188;DHT22;7175;51.978;5.330;2022-12-29T07:36:28;9.60;99.90
14188;DHT22;7175;51.978;5.330;2022-12-29T07:39:01;9.70;99.90
14188;DHT22;7175;51.978;5.330;2022-12-29T07:41:29;9.70;99.90
14188;DHT22;7175;51.978;5.330;2022-12-29T07:43:57;9.80;99.90
14188;DHT22;7175;51.978;5.330;2022-12-29T07:46:25;9.90;99.90
14188;DHT22;7175;51.978;5.330;2022-12-29T07:49:16;10.00;99.90
14188;DHT22;7175;51.978;5.330;2022-12-29T07:51:44;9.90;99.90
14188;DHT22;7175;51.978;5.330;2022-12-29T07:54:12;10.10;99.90
14188;DHT22;7175;51.978;5.330;2022-12-29T07:56:40;10.10;99.90
14188;DHT22;7175;51.978;5.330;2022-12-29T07:59:08;10.10;99.90
14188;DHT22;7175;51.978;5.330;2022-12-29T08:01:36;10.20;99.90
14188;DHT22;7175;51.978;5.330;2022-12-29T08:04:04;10.20;99.90
14188;DHT22;7175;51.978;5.330;2022-12-29T08:06:34;10.20;99.90
14188;DHT22;7175;51.978;5.330;2022-12-29T08:09:04;10.30;99.90
14188;DHT22;7175;51.978;5.330;2022-12-29T08:11:45;10.30;99.90
14188;DHT22;7175;51.978;5.330;2022-12-29T08:14:13;10.40;99.90
14188;DHT22;7175;51.978;5.330;2022-12-29T08:16:41;10.40;99.90
14188;DHT22;7175;51.978;5.330;2022-12-29T08:19:10;10.50;99.90
14188;DHT22;7175;51.978;5.330;2022-12-29T08:21:39;10.50;99.90
14188;DHT22;7175;51.978;5.330;2022-12-29T08:24:08;10.50;99.90
14188;DHT22;7175;51.978;5.330;2022-12-29T08:26:36;10.60;99.90
14188;DHT22;7175;51.978;5.330;2022-12-29T08:29:04;10.60;99.90
14188;DHT22;7175;51.978;5.330;2022-12-29T08:31:34;10.60;99.90
14188;DHT22;7175;51.978;5.330;2022-12-29T08:34:02;10.70;99.90
14188;DHT22;7175;51.978;5.330;2022-12-29T08:36:31;10.70;99.90
14188;DHT22;7175;51.978;5.330;2022-12-29T08:39:00;10.70;99.90
14188;DHT22;7175;51.978;5.330;2022-12-29T08:41:29;10.70;99.90
14188;DHT22;7175;51.978;5.330;2022-12-29T08:43:58;10.80;99.90
14188;DHT22;7175;51.978;5.330;2022-12-29T08:46:26;10.70;99.90
14188;DHT22;7175;51.978;5.330;2022-12-29T08:48:54;10.80;99.90
14188;DHT22;7175;51.978;5.330;2022-12-29T08:51:22;10.70;99.90
14188;DHT22;7175;51.978;5.330;2022-12-29T08:53:51;10.70;99.90
14188;DHT22;7175;51.978;5.330;2022-12-29T08:56:21;10.60;99.90
14188;DHT22;7175;51.978;5.330;2022-12-29T08:58:50;10.60;99.90
14188;DHT22;7175;51.978;5.330;2022-12-29T09:01:18;10.70;99.90
14188;DHT22;7175;51.978;5.330;2022-12-29T09:03:47;10.60;99.90
14188;DHT22;7175;51.978;5.330;2022-12-29T09:06:35;10.60;99.90
14188;DHT22;7175;51.978;5.330;2022-12-29T09:09:06;10.60;99.90
14188;DHT22;7175;51.978;5.330;2022-12-29T09:11:36;10.50;99.90
14188;DHT22;7175;51.978;5.330;2022-12-29T09:14:04;10.50;99.90
14188;DHT22;7175;51.978;5.330;2022-12-29T09:16:33;10.60;99.90
14188;DHT22;7175;51.978;5.330;2022-12-29T09:19:02;10.60;99.90
14188;DHT22;7175;51.978;5.330;2022-12-29T09:21:31;10.60;99.90
14188;DHT22;7175;51.978;5.330;2022-12-29T09:23:59;10.70;99.90
14188;DHT22;7175;51.978;5.330;2022-12-29T09:26:27;10.70;99.90
14188;DHT22;7175;51.978;5.330;2022-12-29T09:28:58;10.60;99.90
14188;DHT22;7175;51.978;5.330;2022-12-29T09:31:26;10.50;99.90
14188;DHT22;7175;51.978;5.330;2022-12-29T09:33:54;10.50;99.90
14188;DHT22;7175;51.978;5.330;2022-12-29T09:36:22;10.50;99.90
14188;DHT22;7175;51.978;5.330;2022-12-29T09:38:50;10.40;99.90
14188;DHT22;7175;51.978;5.330;2022-12-29T09:41:24;10.40;99.90
14188;DHT22;7175;51.978;5.330;2022-12-29T09:44:06;10.30;99.90
14188;DHT22;7175;51.978;5.330;2022-12-29T09:46:41;10.20;99.90
14188;DHT22;7175;51.978;5.330;2022-12-29T09:49:21;10.10;99.90
14188;DHT22;7175;51.978;5.330;2022-12-29T09:51:53;10.10;99.90
14188;DHT22;7175;51.978;5.330;2022-12-29T09:54:36;10.10;99.90
14188;DHT22;7175;51.978;5.330;2022-12-29T09:57:05;10.10;99.90
14188;DHT22;7175;51.978;5.330;2022-12-29T09:59:41;10.10;99.90
14188;DHT22;7175;51.978;5.330;2022-12-29T10:02:21;10.00;99.90
14188;DHT22;7175;51.978;5.330;2022-12-29T10:04:51;10.00;99.90
14188;DHT22;7175;51.978;5.330;2022-12-29T10:07:27;9.90;99.90
14188;DHT22;7175;51.978;5.330;2022-12-29T10:10:04;9.90;99.90
14188;DHT22;7175;51.978;5.330;2022-12-29T10:12:51;10.00;99.90
14188;DHT22;7175;51.978;5.330;2022-12-29T10:15:33;10.00;99.90
14188;DHT22;7175;51.978;5.330;2022-12-29T10:18:17;9.90;99.90
14188;DHT22;7175;51.978;5.330;2022-12-29T10:20:51;10.00;99.90
14188;DHT22;7175;51.978;5.330;2022-12-29T10:23:27;10.00;99.90
14188;DHT22;7175;51.978;5.330;2022-12-29T10:25:58;10.00;99.90
14188;DHT22;7175;51.978;5.330;2022-12-29T10:28:35;10.10;99.90
14188;DHT22;7175;51.978;5.330;2022-12-29T10:31:09;10.00;99.90
14188;DHT22;7175;51.978;5.330;2022-12-29T10:33:42;10.00;99.90
14188;DHT22;7175;51.978;5.330;2022-12-29T10:36:15;10.00;99.90
14188;DHT22;7175;51.978;5.330;2022-12-29T10:38:51;10.00;99.90
14188;DHT22;7175;51.978;5.330;2022-12-29T10:41:23;10.00;99.90
14188;DHT22;7175;51.978;5.330;2022-12-29T10:43:54;10.00;99.90
14188;DHT22;7175;51.978;5.330;2022-12-29T10:46:28;10.00;99.90
14188;DHT22;7175;51.978;5.330;2022-12-29T10:48:57;10.10;99.90
14188;DHT22;7175;51.978;5.330;2022-12-29T10:51:26;10.10;99.90
14188;DHT22;7175;51.978;5.330;2022-12-29T10:54:01;10.20;99.90
14188;DHT22;7175;51.978;5.330;2022-12-29T10:56:34;10.20;99.90
14188;DHT22;7175;51.978;5.330;2022-12-29T10:59:10;10.20;99.90
14188;DHT22;7175;51.978;5.330;2022-12-29T11:01:52;10.30;99.90
14188;DHT22;7175;51.978;5.330;2022-12-29T11:04:40;10.40;99.90
14188;DHT22;7175;51.978;5.330;2022-12-29T11:07:11;10.40;99.90
14188;DHT22;7175;51.978;5.330;2022-12-29T11:09:44;10.40;99.90
14188;DHT22;7175;51.978;5.330;2022-12-29T11:12:21;10.30;99.90
14188;DHT22;7175;51.978;5.330;2022-12-29T11:15:02;10.30;99.90
14188;DHT22;7175;51.978;5.330;2022-12-29T11:17:43;10.30;99.90
14188;DHT22;7175;51.978;5.330;2022-12-29T11:20:32;10.30;99.90
14188;DHT22;7175;51.978;5.330;2022-12-29T11:23:03;10.30;99.90
14188;DHT22;7175;51.978;5.330;2022-12-29T11:25:31;10.30;99.90
14188;DHT22;7175;51.978;5.330;2022-12-29T11:28:02;10.30;99.90
14188;DHT22;7175;51.978;5.330;2022-12-29T11:30:31;10.20;99.90
14188;DHT22;7175;51.978;5.330;2022-12-29T11:33:03;10.10;99.90
14188;DHT22;7175;51.978;5.330;2022-12-29T11:35:35;10.10;99.90
14188;DHT22;7175;51.978;5.330;2022-12-29T11:38:04;10.00;99.90
14188;DHT22;7175;51.978;5.330;2022-12-29T11:40:38;9.90;99.90
14188;DHT22;7175;51.978;5.330;2022-12-29T11:43:11;9.50;99.90
14188;DHT22;7175;51.978;5.330;2022-12-29T11:45:47;9.20;99.90
14188;DHT22;7175;51.978;5.330;2022-12-29T11:48:19;9.20;99.90
14188;DHT22;7175;51.978;5.330;2022-12-29T11:50:51;9.20;99.90
14188;DHT22;7175;51.978;5.330;2022-12-29T11:53:21;9.50;99.90
14188;DHT22;7175;51.978;5.330;2022-12-29T11:55:53;9.80;99.90
14188;DHT22;7175;51.978;5.330;2022-12-29T11:58:29;9.90;99.90
14188;DHT22;7175;51.978;5.330;2022-12-29T12:01:02;10.10;99.90
14188;DHT22;7175;51.978;5.330;2022-12-29T12:03:35;10.10;99.90
14188;DHT22;7175;51.978;5.330;2022-12-29T12:06:07;10.20;99.90
14188;DHT22;7175;51.978;5.330;2022-12-29T12:08:43;10.20;99.90
14188;DHT22;7175;51.978;5.330;2022-12-29T12:11:14;10.20;99.90
14188;DHT22;7175;51.978;5.330;2022-12-29T12:13:47;10.20;99.90
14188;DHT22;7175;51.978;5.330;2022-12-29T12:16:22;10.20;99.90
14188;DHT22;7175;51.978;5.330;2022-12-29T12:18:57;10.20;99.90
14188;DHT22;7175;51.978;5.330;2022-12-29T12:21:34;10.30;99.90
14188;DHT22;7175;51.978;5.330;2022-12-29T12:24:28;10.30;99.90
14188;DHT22;7175;51.978;5.330;2022-12-29T12:27:01;10.40;99.90
14188;DHT22;7175;51.978;5.330;2022-12-29T12:29:35;10.40;99.90
14188;DHT22;7175;51.978;5.330;2022-12-29T12:32:13;10.40;99.90
14188;DHT22;7175;51.978;5.330;2022-12-29T12:34:45;10.50;99.90
14188;DHT22;7175;51.978;5.330;2022-12-29T12:37:32;10.50;99.90
14188;DHT22;7175;51.978;5.330;2022-12-29T12:40:20;10.50;99.90
14188;DHT22;7175;51.978;5.330;2022-12-29T12:43:12;10.60;99.90
14188;DHT22;7175;51.978;5.330;2022-12-29T12:45:52;10.60;99.90
14188;DHT22;7175;51.978;5.330;2022-12-29T12:48:41;10.60;99.90
14188;DHT22;7175;51.978;5.330;2022-12-29T12:51:17;10.60;99.90
14188;DHT22;7175;51.978;5.330;2022-12-29T12:53:57;10.60;99.90
14188;DHT22;7175;51.978;5.330;2022-12-29T12:56:56;10.60;99.90
14188;DHT22;7175;51.978;5.330;2022-12-29T12:59:37;10.60;99.90
14188;DHT22;7175;51.978;5.330;2022-12-29T13:02:17;10.50;99.90
14188;DHT22;7175;51.978;5.330;2022-12-29T13:05:17;10.50;99.90
14188;DHT22;7175;51.978;5.330;2022-12-29T13:08:08;10.60;99.90
14188;DHT22;7175;51.978;5.330;2022-12-29T13:10:42;10.70;99.90
14188;DHT22;7175;51.978;5.330;2022-12-29T13:13:43;10.80;99.90
14188;DHT22;7175;51.978;5.330;2022-12-29T13:16:20;10.90;99.90
14188;DHT22;7175;51.978;5.330;2022-12-29T13:18:58;10.90;99.90
14188;DHT22;7175;51.978;5.330;2022-12-29T13:21:34;11.00;99.90
14188;DHT22;7175;51.978;5.330;2022-12-29T13:24:14;10.90;99.90
14188;DHT22;7175;51.978;5.330;2022-12-29T13:26:46;10.90;99.90
14188;DHT22;7175;51.978;5.330;2022-12-29T13:29:20;10.90;99.90
14188;DHT22;7175;51.978;5.330;2022-12-29T13:31:55;10.80;99.90
14188;DHT22;7175;51.978;5.330;2022-12-29T13:34:32;10.80;99.90
14188;DHT22;7175;51.978;5.330;2022-12-29T13:37:08;10.80;99.90
14188;DHT22;7175;51.978;5.330;2022-12-29T13:39:42;10.70;99.90
14188;DHT22;7175;51.978;5.330;2022-12-29T13:42:14;10.80;99.90
14188;DHT22;7175;51.978;5.330;2022-12-29T13:44:48;10.80;99.90
14188;DHT22;7175;51.978;5.330;2022-12-29T13:47:28;10.80;99.90
14188;DHT22;7175;51.978;5.330;2022-12-29T13:50:02;10.70;99.90
14188;DHT22;7175;51.978;5.330;2022-12-29T13:52:35;10.70;99.90
14188;DHT22;7175;51.978;5.330;2022-12-29T13:55:21;10.70;99.90
14188;DHT22;7175;51.978;5.330;2022-12-29T13:57:58;10.60;99.90
14188;DHT22;7175;51.978;5.330;2022-12-29T14:00:33;10.50;99.90
14188;DHT22;7175;51.978;5.330;2022-12-29T14:03:23;10.50;99.90
14188;DHT22;7175;51.978;5.330;2022-12-29T14:06:12;10.40;99.90
14188;DHT22;7175;51.978;5.330;2022-12-29T14:08:42;10.40;99.90
14188;DHT22;7175;51.978;5.330;2022-12-29T14:11:15;10.30;99.90
14188;DHT22;7175;51.978;5.330;2022-12-29T14:13:46;10.30;99.90
14188;DHT22;7175;51.978;5.330;2022-12-29T14:16:33;10.20;99.90
14188;DHT22;7175;51.978;5.330;2022-12-29T14:19:11;10.20;99.90
14188;DHT22;7175;51.978;5.330;2022-12-29T14:21:48;10.00;99.90
14188;DHT22;7175;51.978;5.330;2022-12-29T14:24:41;9.90;99.90
14188;DHT22;7175;51.978;5.330;2022-12-29T14:30:50;9.90;99.90
14188;DHT22;7175;51.978;5.330;2022-12-29T14:33:20;9.90;99.90
14188;DHT22;7175;51.978;5.330;2022-12-29T14:35:50;9.90;99.90
14188;DHT22;7175;51.978;5.330;2022-12-29T14:38:25;9.90;99.90
14188;DHT22;7175;51.978;5.330;2022-12-29T14:41:15;9.90;99.90
14188;DHT22;7175;51.978;5.330;2022-12-29T14:44:14;9.90;99.90
14188;DHT22;7175;51.978;5.330;2022-12-29T14:46:54;9.90;99.90
14188;DHT22;7175;51.978;5.330;2022-12-29T14:49:26;9.90;99.90
14188;DHT22;7175;51.978;5.330;2022-12-29T14:52:05;10.00;99.90
14188;DHT22;7175;51.978;5.330;2022-12-29T14:54:43;9.90;99.90
14188;DHT22;7175;51.978;5.330;2022-12-29T14:57:22;10.00;99.90
14188;DHT22;7175;51.978;5.330;2022-12-29T14:59:55;10.00;99.90
14188;DHT22;7175;51.978;5.330;2022-12-29T15:02:32;10.00;99.90
14188;DHT22;7175;51.978;5.330;2022-12-29T15:05:02;10.00;99.90
14188;DHT22;7175;51.978;5.330;2022-12-29T15:07:32;10.10;99.90
14188;DHT22;7175;51.978;5.330;2022-12-29T15:10:06;10.10;99.90
14188;DHT22;7175;51.978;5.330;2022-12-29T15:12:38;10.10;99.90
14188;DHT22;7175;51.978;5.330;2022-12-29T15:15:19;10.10;99.90
14188;DHT22;7175;51.978;5.330;2022-12-29T15:17:49;10.00;99.90
14188;DHT22;7175;51.978;5.330;2022-12-29T15:20:23;10.00;99.90
14188;DHT22;7175;51.978;5.330;2022-12-29T15:22:55;10.10;99.90
14188;DHT22;7175;51.978;5.330;2022-12-29T15:25:24;10.10;99.90
14188;DHT22;7175;51.978;5.330;2022-12-29T15:27:57;10.00;99.90
14188;DHT22;7175;51.978;5.330;2022-12-29T15:30:28;10.00;99.90
14188;DHT22;7175;51.978;5.330;2022-12-29T15:32:57;10.00;99.90
14188;DHT22;7175;51.978;5.330;2022-12-29T15:35:31;10.00;99.90
14188;DHT22;7175;51.978;5.330;2022-12-29T15:38:13;10.00;99.90
14188;DHT22;7175;51.978;5.330;2022-12-29T15:40:44;10.10;99.90
14188;DHT22;7175;51.978;5.330;2022-12-29T15:43:31;10.00;99.90
14188;DHT22;7175;51.978;5.330;2022-12-29T15:46:01;10.00;99.90
14188;DHT22;7175;51.978;5.330;2022-12-29T15:48:32;10.00;99.90
14188;DHT22;7175;51.978;5.330;2022-12-29T15:51:01;10.00;99.90
14188;DHT22;7175;51.978;5.330;2022-12-29T15:53:31;10.00;99.90
14188;DHT22;7175;51.978;5.330;2022-12-29T15:56:05;10.00;99.90
14188;DHT22;7175;51.978;5.330;2022-12-29T15:58:40;10.00;99.90
14188;DHT22;7175;51.978;5.330;2022-12-29T16:01:18;10.00;99.90
14188;DHT22;7175;51.978;5.330;2022-12-29T16:03:49;10.00;99.90
14188;DHT22;7175;51.978;5.330;2022-12-29T16:06:30;10.00;99.90
14188;DHT22;7175;51.978;5.330;2022-12-29T16:09:01;10.00;99.90
14188;DHT22;7175;51.978;5.330;2022-12-29T16:11:33;10.00;99.90
14188;DHT22;7175;51.978;5.330;2022-12-29T16:14:06;10.00;99.90
14188;DHT22;7175;51.978;5.330;2022-12-29T16:16:37;9.90;99.90
14188;DHT22;7175;51.978;5.330;2022-12-29T16:19:13;9.90;99.90
14188;DHT22;7175;51.978;5.330;2022-12-29T16:21:42;9.80;99.90
14188;DHT22;7175;51.978;5.330;2022-12-29T16:24:14;9.80;99.90
14188;DHT22;7175;51.978;5.330;2022-12-29T16:26:48;9.70;99.90
14188;DHT22;7175;51.978;5.330;2022-12-29T16:29:17;9.70;99.90
14188;DHT22;7175;51.978;5.330;2022-12-29T16:31:52;9.70;99.90
14188;DHT22;7175;51.978;5.330;2022-12-29T16:34:31;9.60;99.90
14188;DHT22;7175;51.978;5.330;2022-12-29T16:37:00;9.60;99.90